sensor_id;sensor_type;location;lat;lon;timestamp;temperature;humidity
7167;DHT22;3625;51.762;14.320;2023-07-16T00:02:18;24.30;99.90
7167;DHT22;3625;51.762;14.320;2023-07-16T00:04:48;24.30;1.00
7167;DHT22;3625;51.762;14.320;2023-07-16T00:07:18;24.20;99.90
7167;DHT22;3625;51.762;14.320;2023-07-16T00:09:47;24.10;1.00
7167;DHT22;3625;51.762;14.320;2023-07-16T00:12:15;24.00;1.00
7167;DHT22;3625;51.762;14.320;2023-07-16T00:14:44;24.00;1.00
7167;DHT22;3625;51.762;14.320;2023-07-16T00:17:12;23.90;1.00
7167;DHT22;3625;51.762;14.320;2023-07-16T00:19:41;23.80;1.00
7167;DHT22;3625;51.762;14.320;2023-07-16T00:22:09;23.60;1.00
7167;DHT22;3625;51.762;14.320;2023-07-16T00:24:39;23.50;34.60
7167;DHT22;3625;51.762;14.320;2023-07-16T00:27:07;23.50;99.90
7167;DHT22;3625;51.762;14.320;2023-07-16T00:29:36;23.50;99.90
7167;DHT22;3625;51.762;14.320;2023-07-16T00:32:05;23.40;99.90
7167;DHT22;3625;51.762;14.320;2023-07-16T00:34:34;23.40;99.90
7167;DHT22;3625;51.762;14.320;2023-07-16T00:37:02;23.40;99.90
7167;DHT22;3625;51.762;14.320;2023-07-16T00:39:31;23.40;99.90
7167;DHT22;3625;51.762;14.320;2023-07-16T00:42:01;23.30;99.90
7167;DHT22;3625;51.762;14.320;2023-07-16T00:44:30;23.30;99.90
7167;DHT22;3625;51.762;14.320;2023-07-16T00:46:59;23.30;99.90
7167;DHT22;3625;51.762;14.320;2023-07-16T00:49:29;23.30;99.90
7167;DHT22;3625;51.762;14.320;2023-07-16T00:51:59;23.40;99.90
7167;DHT22;3625;51.762;14.320;2023-07-16T00:54:29;23.40;1.00
7167;DHT22;3625;51.762;14.320;2023-07-16T00:57:00;23.40;99.90
7167;DHT22;3625;51.762;14.320;2023-07-16T00:59:29;23.60;1.00
7167;DHT22;3625;51.762;14.320;2023-07-16T01:01:58;23.60;1.00
7167;DHT22;3625;51.762;14.320;2023-07-16T01:04:26;23.60;1.00
7167;DHT22;3625;51.762;14.320;2023-07-16T01:06:58;23.60;1.00
7167;DHT22;3625;51.762;14.320;2023-07-16T01:09:37;24.70;1.00
7167;DHT22;3625;51.762;14.320;2023-07-16T01:12:13;23.40;1.00
7167;DHT22;3625;51.762;14.320;2023-07-16T01:14:44;23.40;99.90
7167;DHT22;3625;51.762;14.320;2023-07-16T01:17:14;23.40;43.70
7167;DHT22;3625;51.762;14.320;2023-07-16T01:19:49;23.10;99.90
7167;DHT22;3625;51.762;14.320;2023-07-16T01:22:35;23.60;1.00
7167;DHT22;3625;51.762;14.320;2023-07-16T01:25:44;23.60;1.00
7167;DHT22;3625;51.762;14.320;2023-07-16T01:28:39;23.60;1.00
7167;DHT22;3625;51.762;14.320;2023-07-16T01:31:23;23.80;1.00
7167;DHT22;3625;51.762;14.320;2023-07-16T01:33:52;23.80;1.00
7167;DHT22;3625;51.762;14.320;2023-07-16T01:36:22;23.80;99.90
7167;DHT22;3625;51.762;14.320;2023-07-16T01:38:58;23.80;99.90
7167;DHT22;3625;51.762;14.320;2023-07-16T01:41:28;23.80;99.90
7167;DHT22;3625;51.762;14.320;2023-07-16T01:43:57;23.70;1.00
7167;DHT22;3625;51.762;14.320;2023-07-16T01:46:31;23.80;1.00
7167;DHT22;3625;51.762;14.320;2023-07-16T01:49:00;23.70;93.20
7167;DHT22;3625;51.762;14.320;2023-07-16T01:51:28;23.80;99.90
7167;DHT22;3625;51.762;14.320;2023-07-16T01:53:57;23.80;99.90
7167;DHT22;3625;51.762;14.320;2023-07-16T01:56:25;23.80;1.00
7167;DHT22;3625;51.762;14.320;2023-07-16T01:58:54;23.80;1.00
7167;DHT22;3625;51.762;14.320;2023-07-16T02:01:22;23.70;1.00
7167;DHT22;3625;51.762;14.320;2023-07-16T02:03:52;23.70;1.00
7167;DHT22;3625;51.762;14.320;2023-07-16T02:06:21;23.70;1.00
7167;DHT22;3625;51.762;14.320;2023-07-16T02:08:49;23.70;99.90
7167;DHT22;3625;51.762;14.320;2023-07-16T02:11:18;23.60;99.90
7167;DHT22;3625;51.762;14.320;2023-07-16T02:13:47;23.70;99.90
7167;DHT22;3625;51.762;14.320;2023-07-16T02:16:16;23.60;97.60
7167;DHT22;3625;51.762;14.320;2023-07-16T02:18:45;23.60;99.90
7167;DHT22;3625;51.762;14.320;2023-07-16T02:21:15;23.50;99.90
7167;DHT22;3625;51.762;14.320;2023-07-16T02:23:53;23.40;99.90
7167;DHT22;3625;51.762;14.320;2023-07-16T02:26:25;23.50;99.90
7167;DHT22;3625;51.762;14.320;2023-07-16T02:28:56;23.50;99.90
7167;DHT22;3625;51.762;14.320;2023-07-16T02:31:26;23.40;1.00
7167;DHT22;3625;51.762;14.320;2023-07-16T02:33:56;23.30;1.00
7167;DHT22;3625;51.762;14.320;2023-07-16T02:36:35;23.30;1.00
7167;DHT22;3625;51.762;14.320;2023-07-16T02:39:04;23.30;1.00
7167;DHT22;3625;51.762;14.320;2023-07-16T02:41:38;23.30;1.00
7167;DHT22;3625;51.762;14.320;2023-07-16T02:44:09;23.20;1.00
7167;DHT22;3625;51.762;14.320;2023-07-16T02:46:41;23.30;1.00
7167;DHT22;3625;51.762;14.320;2023-07-16T02:49:11;23.20;1.00
7167;DHT22;3625;51.762;14.320;2023-07-16T02:51:43;23.20;1.00
7167;DHT22;3625;51.762;14.320;2023-07-16T02:54:11;23.20;1.00
7167;DHT22;3625;51.762;14.320;2023-07-16T02:56:41;23.20;1.00
7167;DHT22;3625;51.762;14.320;2023-07-16T02:59:15;23.20;1.00
7167;DHT22;3625;51.762;14.320;2023-07-16T03:01:59;22.90;1.00
7167;DHT22;3625;51.762;14.320;2023-07-16T03:04:28;22.50;1.00
7167;DHT22;3625;51.762;14.320;2023-07-16T03:07:07;23.20;1.00
7167;DHT22;3625;51.762;14.320;2023-07-16T03:12:10;23.30;1.00
7167;DHT22;3625;51.762;14.320;2023-07-16T03:14:40;24.80;1.00
7167;DHT22;3625;51.762;14.320;2023-07-16T03:17:10;23.10;1.00
7167;DHT22;3625;51.762;14.320;2023-07-16T03:19:51;23.10;1.00
7167;DHT22;3625;51.762;14.320;2023-07-16T03:22:36;23.10;1.00
7167;DHT22;3625;51.762;14.320;2023-07-16T03:25:06;23.10;1.00
7167;DHT22;3625;51.762;14.320;2023-07-16T03:27:51;23.10;1.00
7167;DHT22;3625;51.762;14.320;2023-07-16T03:30:24;23.00;1.00
7167;DHT22;3625;51.762;14.320;2023-07-16T03:32:55;23.00;99.90
7167;DHT22;3625;51.762;14.320;2023-07-16T03:35:25;22.90;1.00
7167;DHT22;3625;51.762;14.320;2023-07-16T03:38:00;22.80;1.00
7167;DHT22;3625;51.762;14.320;2023-07-16T03:40:36;22.70;1.00
7167;DHT22;3625;51.762;14.320;2023-07-16T03:43:09;22.60;34.60
7167;DHT22;3625;51.762;14.320;2023-07-16T03:45:38;22.50;1.00
7167;DHT22;3625;51.762;14.320;2023-07-16T03:48:07;22.50;1.00
7167;DHT22;3625;51.762;14.320;2023-07-16T03:50:36;22.40;99.90
7167;DHT22;3625;51.762;14.320;2023-07-16T03:53:07;22.20;1.00
7167;DHT22;3625;51.762;14.320;2023-07-16T03:55:36;22.10;1.00
7167;DHT22;3625;51.762;14.320;2023-07-16T03:58:06;21.90;99.90
7167;DHT22;3625;51.762;14.320;2023-07-16T04:00:34;21.70;1.00
7167;DHT22;3625;51.762;14.320;2023-07-16T04:03:03;21.60;1.00
7167;DHT22;3625;51.762;14.320;2023-07-16T04:05:35;21.50;1.00
7167;DHT22;3625;51.762;14.320;2023-07-16T04:08:07;21.50;99.90
7167;DHT22;3625;51.762;14.320;2023-07-16T04:10:36;21.40;1.00
7167;DHT22;3625;51.762;14.320;2023-07-16T04:13:11;21.30;1.00
7167;DHT22;3625;51.762;14.320;2023-07-16T04:15:44;21.20;1.00
7167;DHT22;3625;51.762;14.320;2023-07-16T04:18:13;21.00;99.90
7167;DHT22;3625;51.762;14.320;2023-07-16T04:20:45;21.10;99.90
7167;DHT22;3625;51.762;14.320;2023-07-16T04:23:23;21.00;99.90
7167;DHT22;3625;51.762;14.320;2023-07-16T04:25:53;21.00;99.90
7167;DHT22;3625;51.762;14.320;2023-07-16T04:28:22;20.80;99.90
7167;DHT22;3625;51.762;14.320;2023-07-16T04:30:50;20.80;99.90
7167;DHT22;3625;51.762;14.320;2023-07-16T04:33:19;20.70;99.90
7167;DHT22;3625;51.762;14.320;2023-07-16T04:35:48;20.60;99.90
7167;DHT22;3625;51.762;14.320;2023-07-16T04:38:18;20.60;99.90
7167;DHT22;3625;51.762;14.320;2023-07-16T04:40:47;20.60;99.90
7167;DHT22;3625;51.762;14.320;2023-07-16T04:43:15;20.40;99.90
7167;DHT22;3625;51.762;14.320;2023-07-16T04:45:44;20.40;99.90
7167;DHT22;3625;51.762;14.320;2023-07-16T04:48:17;20.30;99.90
7167;DHT22;3625;51.762;14.320;2023-07-16T04:50:45;20.40;99.90
7167;DHT22;3625;51.762;14.320;2023-07-16T04:53:22;20.30;99.90
7167;DHT22;3625;51.762;14.320;2023-07-16T04:55:55;20.30;99.90
7167;DHT22;3625;51.762;14.320;2023-07-16T04:58:24;20.30;99.90
7167;DHT22;3625;51.762;14.320;2023-07-16T05:00:53;20.40;99.90
7167;DHT22;3625;51.762;14.320;2023-07-16T05:03:44;20.30;99.90
7167;DHT22;3625;51.762;14.320;2023-07-16T05:06:12;20.30;99.90
7167;DHT22;3625;51.762;14.320;2023-07-16T05:08:43;20.30;99.90
7167;DHT22;3625;51.762;14.320;2023-07-16T05:11:14;20.40;99.90
7167;DHT22;3625;51.762;14.320;2023-07-16T05:13:43;20.50;99.90
7167;DHT22;3625;51.762;14.320;2023-07-16T05:16:14;20.70;99.90
7167;DHT22;3625;51.762;14.320;2023-07-16T05:18:53;20.90;99.90
7167;DHT22;3625;51.762;14.320;2023-07-16T05:21:29;21.30;99.90
7167;DHT22;3625;51.762;14.320;2023-07-16T05:23:59;21.60;99.90
7167;DHT22;3625;51.762;14.320;2023-07-16T05:26:27;21.70;99.90
7167;DHT22;3625;51.762;14.320;2023-07-16T05:28:57;21.80;99.90
7167;DHT22;3625;51.762;14.320;2023-07-16T05:31:26;21.90;99.90
7167;DHT22;3625;51.762;14.320;2023-07-16T05:33:56;22.00;99.90
7167;DHT22;3625;51.762;14.320;2023-07-16T05:36:26;22.00;99.90
7167;DHT22;3625;51.762;14.320;2023-07-16T05:38:58;22.10;99.90
7167;DHT22;3625;51.762;14.320;2023-07-16T05:41:27;22.00;99.90
7167;DHT22;3625;51.762;14.320;2023-07-16T05:43:55;22.10;99.90
7167;DHT22;3625;51.762;14.320;2023-07-16T05:46:26;22.00;99.90
7167;DHT22;3625;51.762;14.320;2023-07-16T05:49:01;22.10;99.90
7167;DHT22;3625;51.762;14.320;2023-07-16T05:51:29;22.20;99.90
7167;DHT22;3625;51.762;14.320;2023-07-16T05:53:59;22.20;99.90
7167;DHT22;3625;51.762;14.320;2023-07-16T05:56:28;22.30;99.90
7167;DHT22;3625;51.762;14.320;2023-07-16T05:58:57;22.60;99.90
7167;DHT22;3625;51.762;14.320;2023-07-16T06:01:26;22.70;99.90
7167;DHT22;3625;51.762;14.320;2023-07-16T06:03:55;22.80;99.90
7167;DHT22;3625;51.762;14.320;2023-07-16T06:06:23;22.70;99.90
7167;DHT22;3625;51.762;14.320;2023-07-16T06:08:52;22.70;99.90
7167;DHT22;3625;51.762;14.320;2023-07-16T06:11:22;22.70;99.90
7167;DHT22;3625;51.762;14.320;2023-07-16T06:13:53;22.70;99.90
7167;DHT22;3625;51.762;14.320;2023-07-16T06:16:22;23.00;99.90
7167;DHT22;3625;51.762;14.320;2023-07-16T06:18:51;23.00;99.90
7167;DHT22;3625;51.762;14.320;2023-07-16T06:21:22;23.10;99.90
7167;DHT22;3625;51.762;14.320;2023-07-16T06:23:50;23.10;99.90
7167;DHT22;3625;51.762;14.320;2023-07-16T06:26:22;23.00;99.90
7167;DHT22;3625;51.762;14.320;2023-07-16T06:28:50;23.00;99.90
7167;DHT22;3625;51.762;14.320;2023-07-16T06:31:19;23.00;99.90
7167;DHT22;3625;51.762;14.320;2023-07-16T06:33:51;23.00;99.90
7167;DHT22;3625;51.762;14.320;2023-07-16T06:36:19;23.00;99.90
7167;DHT22;3625;51.762;14.320;2023-07-16T06:38:49;23.10;99.90
7167;DHT22;3625;51.762;14.320;2023-07-16T06:41:18;23.20;99.90
7167;DHT22;3625;51.762;14.320;2023-07-16T06:43:48;23.50;99.90
7167;DHT22;3625;51.762;14.320;2023-07-16T06:46:17;23.60;99.90
7167;DHT22;3625;51.762;14.320;2023-07-16T06:48:48;23.70;99.90
7167;DHT22;3625;51.762;14.320;2023-07-16T06:51:18;23.50;99.90
7167;DHT22;3625;51.762;14.320;2023-07-16T06:53:49;23.30;99.90
7167;DHT22;3625;51.762;14.320;2023-07-16T06:56:18;23.00;99.90
7167;DHT22;3625;51.762;14.320;2023-07-16T06:58:48;22.80;99.90
7167;DHT22;3625;51.762;14.320;2023-07-16T07:01:17;21.60;99.90
7167;DHT22;3625;51.762;14.320;2023-07-16T07:03:46;22.80;99.90
7167;DHT22;3625;51.762;14.320;2023-07-16T07:06:14;23.30;99.90
7167;DHT22;3625;51.762;14.320;2023-07-16T07:08:44;23.70;99.90
7167;DHT22;3625;51.762;14.320;2023-07-16T07:11:13;24.70;99.90
7167;DHT22;3625;51.762;14.320;2023-07-16T07:13:44;24.70;99.90
7167;DHT22;3625;51.762;14.320;2023-07-16T07:16:14;25.30;99.90
7167;DHT22;3625;51.762;14.320;2023-07-16T07:18:43;25.80;99.90
7167;DHT22;3625;51.762;14.320;2023-07-16T07:21:12;25.30;99.90
7167;DHT22;3625;51.762;14.320;2023-07-16T07:23:41;25.90;91.90
7167;DHT22;3625;51.762;14.320;2023-07-16T07:26:10;25.90;22.60
7167;DHT22;3625;51.762;14.320;2023-07-16T07:28:39;25.90;1.00
7167;DHT22;3625;51.762;14.320;2023-07-16T07:31:09;25.70;1.00
7167;DHT22;3625;51.762;14.320;2023-07-16T07:33:40;25.70;1.00
7167;DHT22;3625;51.762;14.320;2023-07-16T07:36:09;25.30;99.90
7167;DHT22;3625;51.762;14.320;2023-07-16T07:38:40;24.90;1.00
7167;DHT22;3625;51.762;14.320;2023-07-16T07:41:08;24.50;1.00
7167;DHT22;3625;51.762;14.320;2023-07-16T07:43:37;24.20;1.00
7167;DHT22;3625;51.762;14.320;2023-07-16T07:46:06;24.00;94.80
7167;DHT22;3625;51.762;14.320;2023-07-16T07:48:34;23.80;99.90
7167;DHT22;3625;51.762;14.320;2023-07-16T07:51:04;23.80;99.90
7167;DHT22;3625;51.762;14.320;2023-07-16T07:53:34;23.70;99.90
7167;DHT22;3625;51.762;14.320;2023-07-16T07:56:03;23.70;99.90
7167;DHT22;3625;51.762;14.320;2023-07-16T07:58:32;23.70;99.90
7167;DHT22;3625;51.762;14.320;2023-07-16T08:01:04;23.80;99.90
7167;DHT22;3625;51.762;14.320;2023-07-16T08:03:35;23.70;99.90
7167;DHT22;3625;51.762;14.320;2023-07-16T08:06:05;23.80;1.00
7167;DHT22;3625;51.762;14.320;2023-07-16T08:08:34;23.90;1.00
7167;DHT22;3625;51.762;14.320;2023-07-16T08:11:03;23.90;1.00
7167;DHT22;3625;51.762;14.320;2023-07-16T08:13:31;24.10;1.00
7167;DHT22;3625;51.762;14.320;2023-07-16T08:16:00;24.40;1.00
7167;DHT22;3625;51.762;14.320;2023-07-16T08:18:29;24.70;1.00
7167;DHT22;3625;51.762;14.320;2023-07-16T08:20:57;24.90;99.90
7167;DHT22;3625;51.762;14.320;2023-07-16T08:23:27;25.00;99.90
7167;DHT22;3625;51.762;14.320;2023-07-16T08:25:56;25.10;53.70
7167;DHT22;3625;51.762;14.320;2023-07-16T08:28:25;25.10;1.00
7167;DHT22;3625;51.762;14.320;2023-07-16T08:30:54;25.10;1.00
7167;DHT22;3625;51.762;14.320;2023-07-16T08:33:23;25.20;99.90
7167;DHT22;3625;51.762;14.320;2023-07-16T08:35:51;25.60;99.90
7167;DHT22;3625;51.762;14.320;2023-07-16T08:38:20;25.50;1.00
7167;DHT22;3625;51.762;14.320;2023-07-16T08:40:50;25.90;1.00
7167;DHT22;3625;51.762;14.320;2023-07-16T08:43:18;26.30;99.90
7167;DHT22;3625;51.762;14.320;2023-07-16T08:45:49;26.40;1.00
7167;DHT22;3625;51.762;14.320;2023-07-16T08:48:18;26.70;1.00
7167;DHT22;3625;51.762;14.320;2023-07-16T08:50:47;27.20;93.90
7167;DHT22;3625;51.762;14.320;2023-07-16T08:53:17;27.30;1.00
7167;DHT22;3625;51.762;14.320;2023-07-16T08:55:49;27.50;1.00
7167;DHT22;3625;51.762;14.320;2023-07-16T08:58:23;27.70;99.90
7167;DHT22;3625;51.762;14.320;2023-07-16T09:00:52;27.80;99.90
7167;DHT22;3625;51.762;14.320;2023-07-16T09:03:24;27.90;99.90
7167;DHT22;3625;51.762;14.320;2023-07-16T09:05:53;28.20;99.90
7167;DHT22;3625;51.762;14.320;2023-07-16T09:08:22;28.60;1.00
7167;DHT22;3625;51.762;14.320;2023-07-16T09:10:57;28.50;1.00
7167;DHT22;3625;51.762;14.320;2023-07-16T09:13:26;28.20;1.00
7167;DHT22;3625;51.762;14.320;2023-07-16T09:15:58;28.10;1.00
7167;DHT22;3625;51.762;14.320;2023-07-16T09:18:27;28.10;1.00
7167;DHT22;3625;51.762;14.320;2023-07-16T09:20:56;28.10;1.00
7167;DHT22;3625;51.762;14.320;2023-07-16T09:23:25;28.00;1.00
7167;DHT22;3625;51.762;14.320;2023-07-16T09:25:56;27.70;1.00
7167;DHT22;3625;51.762;14.320;2023-07-16T09:28:27;27.50;1.00
7167;DHT22;3625;51.762;14.320;2023-07-16T09:31:02;27.50;1.00
7167;DHT22;3625;51.762;14.320;2023-07-16T09:33:31;27.70;1.00
7167;DHT22;3625;51.762;14.320;2023-07-16T09:36:00;27.40;1.00
7167;DHT22;3625;51.762;14.320;2023-07-16T09:38:30;26.60;1.00
7167;DHT22;3625;51.762;14.320;2023-07-16T09:41:02;26.70;1.00
7167;DHT22;3625;51.762;14.320;2023-07-16T09:43:33;27.30;1.00
7167;DHT22;3625;51.762;14.320;2023-07-16T09:46:07;28.00;1.00
7167;DHT22;3625;51.762;14.320;2023-07-16T09:48:36;28.30;1.00
7167;DHT22;3625;51.762;14.320;2023-07-16T09:51:07;28.20;1.00
7167;DHT22;3625;51.762;14.320;2023-07-16T09:53:40;28.00;1.00
7167;DHT22;3625;51.762;14.320;2023-07-16T09:56:14;28.30;1.00
7167;DHT22;3625;51.762;14.320;2023-07-16T09:58:45;28.60;1.00
7167;DHT22;3625;51.762;14.320;2023-07-16T10:01:14;29.00;1.00
7167;DHT22;3625;51.762;14.320;2023-07-16T10:03:48;29.00;1.00
7167;DHT22;3625;51.762;14.320;2023-07-16T10:06:17;28.60;1.00
7167;DHT22;3625;51.762;14.320;2023-07-16T10:08:49;28.40;1.00
7167;DHT22;3625;51.762;14.320;2023-07-16T10:11:21;28.30;1.00
7167;DHT22;3625;51.762;14.320;2023-07-16T10:13:50;28.30;1.00
7167;DHT22;3625;51.762;14.320;2023-07-16T10:16:22;28.30;1.00
7167;DHT22;3625;51.762;14.320;2023-07-16T10:18:54;28.30;1.00
7167;DHT22;3625;51.762;14.320;2023-07-16T10:21:27;28.30;1.00
7167;DHT22;3625;51.762;14.320;2023-07-16T10:24:05;28.40;1.00
7167;DHT22;3625;51.762;14.320;2023-07-16T10:26:47;28.50;1.00
7167;DHT22;3625;51.762;14.320;2023-07-16T10:29:15;29.00;1.00
7167;DHT22;3625;51.762;14.320;2023-07-16T10:31:44;29.30;99.90
7167;DHT22;3625;51.762;14.320;2023-07-16T10:34:15;29.50;99.90
7167;DHT22;3625;51.762;14.320;2023-07-16T10:36:44;29.40;99.90
7167;DHT22;3625;51.762;14.320;2023-07-16T10:39:12;29.60;99.90
7167;DHT22;3625;51.762;14.320;2023-07-16T10:41:43;29.80;99.90
7167;DHT22;3625;51.762;14.320;2023-07-16T10:44:15;29.10;99.90
7167;DHT22;3625;51.762;14.320;2023-07-16T10:46:44;28.70;99.90
7167;DHT22;3625;51.762;14.320;2023-07-16T10:49:13;28.20;99.90
7167;DHT22;3625;51.762;14.320;2023-07-16T10:51:44;28.00;99.90
7167;DHT22;3625;51.762;14.320;2023-07-16T10:54:12;28.10;99.90
7167;DHT22;3625;51.762;14.320;2023-07-16T10:56:41;28.00;99.90
7167;DHT22;3625;51.762;14.320;2023-07-16T10:59:10;28.00;99.90
7167;DHT22;3625;51.762;14.320;2023-07-16T11:01:40;28.00;99.90
7167;DHT22;3625;51.762;14.320;2023-07-16T11:04:12;27.70;99.90
7167;DHT22;3625;51.762;14.320;2023-07-16T11:06:41;27.50;99.90
7167;DHT22;3625;51.762;14.320;2023-07-16T11:09:10;27.40;99.90
7167;DHT22;3625;51.762;14.320;2023-07-16T11:11:41;27.10;99.90
7167;DHT22;3625;51.762;14.320;2023-07-16T11:14:09;27.30;99.90
7167;DHT22;3625;51.762;14.320;2023-07-16T11:16:40;27.80;99.90
7167;DHT22;3625;51.762;14.320;2023-07-16T11:19:09;28.40;99.90
7167;DHT22;3625;51.762;14.320;2023-07-16T11:21:37;29.20;99.90
7167;DHT22;3625;51.762;14.320;2023-07-16T11:24:10;29.80;99.90
7167;DHT22;3625;51.762;14.320;2023-07-16T11:26:50;30.30;99.90
7167;DHT22;3625;51.762;14.320;2023-07-16T11:29:21;30.20;99.90
7167;DHT22;3625;51.762;14.320;2023-07-16T11:31:52;29.80;99.90
7167;DHT22;3625;51.762;14.320;2023-07-16T11:34:21;29.60;99.90
7167;DHT22;3625;51.762;14.320;2023-07-16T11:36:51;29.40;99.90
7167;DHT22;3625;51.762;14.320;2023-07-16T11:39:19;29.30;99.90
7167;DHT22;3625;51.762;14.320;2023-07-16T11:41:55;29.20;99.90
7167;DHT22;3625;51.762;14.320;2023-07-16T11:44:25;29.40;99.90
7167;DHT22;3625;51.762;14.320;2023-07-16T11:47:00;29.60;99.90
7167;DHT22;3625;51.762;14.320;2023-07-16T11:49:30;29.70;99.90
7167;DHT22;3625;51.762;14.320;2023-07-16T11:51:59;29.70;99.90
7167;DHT22;3625;51.762;14.320;2023-07-16T11:54:27;29.50;99.90
7167;DHT22;3625;51.762;14.320;2023-07-16T11:56:56;29.20;99.90
7167;DHT22;3625;51.762;14.320;2023-07-16T11:59:25;28.80;99.90
7167;DHT22;3625;51.762;14.320;2023-07-16T12:01:53;28.20;99.90
7167;DHT22;3625;51.762;14.320;2023-07-16T12:04:23;28.00;99.90
7167;DHT22;3625;51.762;14.320;2023-07-16T12:06:52;27.90;99.90
7167;DHT22;3625;51.762;14.320;2023-07-16T12:09:20;28.10;99.90
7167;DHT22;3625;51.762;14.320;2023-07-16T12:11:49;28.00;99.90
7167;DHT22;3625;51.762;14.320;2023-07-16T12:14:17;27.60;99.90
7167;DHT22;3625;51.762;14.320;2023-07-16T12:16:46;27.40;99.90
7167;DHT22;3625;51.762;14.320;2023-07-16T12:19:15;27.40;99.90
7167;DHT22;3625;51.762;14.320;2023-07-16T12:21:45;27.60;99.90
7167;DHT22;3625;51.762;14.320;2023-07-16T12:24:13;27.40;99.90
7167;DHT22;3625;51.762;14.320;2023-07-16T12:26:42;27.50;99.90
7167;DHT22;3625;51.762;14.320;2023-07-16T12:29:11;27.40;99.90
7167;DHT22;3625;51.762;14.320;2023-07-16T12:31:39;27.40;99.90
7167;DHT22;3625;51.762;14.320;2023-07-16T12:34:08;27.40;99.90
7167;DHT22;3625;51.762;14.320;2023-07-16T12:36:38;27.40;99.90
7167;DHT22;3625;51.762;14.320;2023-07-16T12:39:08;27.40;99.90
7167;DHT22;3625;51.762;14.320;2023-07-16T12:41:38;27.60;99.90
7167;DHT22;3625;51.762;14.320;2023-07-16T12:44:06;27.50;99.90
7167;DHT22;3625;51.762;14.320;2023-07-16T12:46:35;27.70;99.90
7167;DHT22;3625;51.762;14.320;2023-07-16T12:49:03;27.60;99.90
7167;DHT22;3625;51.762;14.320;2023-07-16T12:51:32;27.60;99.90
7167;DHT22;3625;51.762;14.320;2023-07-16T12:54:01;27.60;99.90
7167;DHT22;3625;51.762;14.320;2023-07-16T12:56:33;27.70;99.90
7167;DHT22;3625;51.762;14.320;2023-07-16T12:59:01;27.70;99.90
7167;DHT22;3625;51.762;14.320;2023-07-16T13:01:31;27.90;99.90
7167;DHT22;3625;51.762;14.320;2023-07-16T13:04:00;28.10;99.90
7167;DHT22;3625;51.762;14.320;2023-07-16T13:06:28;28.10;99.90
7167;DHT22;3625;51.762;14.320;2023-07-16T13:08:57;28.00;99.90
7167;DHT22;3625;51.762;14.320;2023-07-16T13:11:26;28.30;99.90
7167;DHT22;3625;51.762;14.320;2023-07-16T13:13:56;28.50;99.90
7167;DHT22;3625;51.762;14.320;2023-07-16T13:16:24;28.60;99.90
7167;DHT22;3625;51.762;14.320;2023-07-16T13:18:55;28.70;99.90
7167;DHT22;3625;51.762;14.320;2023-07-16T13:21:27;28.90;99.90
7167;DHT22;3625;51.762;14.320;2023-07-16T13:23:56;29.10;99.90
7167;DHT22;3625;51.762;14.320;2023-07-16T13:26:25;29.10;99.90
7167;DHT22;3625;51.762;14.320;2023-07-16T13:28:53;28.60;99.90
7167;DHT22;3625;51.762;14.320;2023-07-16T13:31:23;28.60;99.90
7167;DHT22;3625;51.762;14.320;2023-07-16T13:33:52;28.50;99.90
7167;DHT22;3625;51.762;14.320;2023-07-16T13:36:20;28.20;99.90
7167;DHT22;3625;51.762;14.320;2023-07-16T13:38:49;28.00;99.90
7167;DHT22;3625;51.762;14.320;2023-07-16T13:41:19;27.90;99.90
7167;DHT22;3625;51.762;14.320;2023-07-16T13:43:48;28.00;99.90
7167;DHT22;3625;51.762;14.320;2023-07-16T13:46:16;28.30;99.90
7167;DHT22;3625;51.762;14.320;2023-07-16T13:48:46;28.60;99.90
7167;DHT22;3625;51.762;14.320;2023-07-16T13:51:22;28.80;99.90
7167;DHT22;3625;51.762;14.320;2023-07-16T13:53:51;28.90;99.90
7167;DHT22;3625;51.762;14.320;2023-07-16T13:56:19;28.80;99.90
7167;DHT22;3625;51.762;14.320;2023-07-16T13:58:48;28.80;99.90
7167;DHT22;3625;51.762;14.320;2023-07-16T14:01:17;29.00;99.90
7167;DHT22;3625;51.762;14.320;2023-07-16T14:03:49;29.40;99.90
7167;DHT22;3625;51.762;14.320;2023-07-16T14:06:18;29.60;99.90
7167;DHT22;3625;51.762;14.320;2023-07-16T14:08:47;29.80;99.90
7167;DHT22;3625;51.762;14.320;2023-07-16T14:11:17;30.00;99.90
7167;DHT22;3625;51.762;14.320;2023-07-16T14:13:47;30.00;99.90
7167;DHT22;3625;51.762;14.320;2023-07-16T14:16:18;30.00;99.90
7167;DHT22;3625;51.762;14.320;2023-07-16T14:18:50;29.70;99.90
7167;DHT22;3625;51.762;14.320;2023-07-16T14:21:23;29.40;99.90
7167;DHT22;3625;51.762;14.320;2023-07-16T14:23:52;29.30;99.90
7167;DHT22;3625;51.762;14.320;2023-07-16T14:26:21;29.20;99.90
7167;DHT22;3625;51.762;14.320;2023-07-16T14:28:49;29.30;99.90
7167;DHT22;3625;51.762;14.320;2023-07-16T14:31:18;29.40;99.90
7167;DHT22;3625;51.762;14.320;2023-07-16T14:33:48;29.40;99.90
7167;DHT22;3625;51.762;14.320;2023-07-16T14:36:20;29.50;99.90
7167;DHT22;3625;51.762;14.320;2023-07-16T14:38:51;29.40;99.90
7167;DHT22;3625;51.762;14.320;2023-07-16T14:41:19;29.40;99.90
7167;DHT22;3625;51.762;14.320;2023-07-16T14:43:48;29.40;99.90
7167;DHT22;3625;51.762;14.320;2023-07-16T14:46:17;29.10;99.90
7167;DHT22;3625;51.762;14.320;2023-07-16T14:48:46;28.90;99.90
7167;DHT22;3625;51.762;14.320;2023-07-16T14:51:16;28.70;99.90
7167;DHT22;3625;51.762;14.320;2023-07-16T14:53:44;28.90;99.90
7167;DHT22;3625;51.762;14.320;2023-07-16T14:56:13;29.00;99.90
7167;DHT22;3625;51.762;14.320;2023-07-16T14:58:42;29.00;99.90
7167;DHT22;3625;51.762;14.320;2023-07-16T15:01:11;29.10;99.90
7167;DHT22;3625;51.762;14.320;2023-07-16T15:03:43;29.10;99.90
7167;DHT22;3625;51.762;14.320;2023-07-16T15:06:12;29.10;99.90
7167;DHT22;3625;51.762;14.320;2023-07-16T15:08:43;29.10;99.90
7167;DHT22;3625;51.762;14.320;2023-07-16T15:11:12;29.00;99.90
7167;DHT22;3625;51.762;14.320;2023-07-16T15:13:41;29.00;99.90
7167;DHT22;3625;51.762;14.320;2023-07-16T15:16:10;29.00;99.90
7167;DHT22;3625;51.762;14.320;2023-07-16T15:18:40;28.90;99.90
7167;DHT22;3625;51.762;14.320;2023-07-16T15:21:09;28.80;99.90
7167;DHT22;3625;51.762;14.320;2023-07-16T15:23:44;28.70;99.90
7167;DHT22;3625;51.762;14.320;2023-07-16T15:26:13;28.70;99.90
7167;DHT22;3625;51.762;14.320;2023-07-16T15:28:42;28.80;99.90
7167;DHT22;3625;51.762;14.320;2023-07-16T15:31:12;28.80;99.90
7167;DHT22;3625;51.762;14.320;2023-07-16T15:33:41;28.90;99.90
7167;DHT22;3625;51.762;14.320;2023-07-16T15:36:09;28.90;99.90
7167;DHT22;3625;51.762;14.320;2023-07-16T15:38:38;28.90;99.90
7167;DHT22;3625;51.762;14.320;2023-07-16T15:41:08;28.90;99.90
7167;DHT22;3625;51.762;14.320;2023-07-16T15:43:40;28.90;99.90
7167;DHT22;3625;51.762;14.320;2023-07-16T15:46:08;28.90;99.90
7167;DHT22;3625;51.762;14.320;2023-07-16T15:48:37;28.80;99.90
7167;DHT22;3625;51.762;14.320;2023-07-16T15:51:09;28.70;99.90
7167;DHT22;3625;51.762;14.320;2023-07-16T15:53:38;28.50;99.90
7167;DHT22;3625;51.762;14.320;2023-07-16T15:56:09;28.40;99.90
7167;DHT22;3625;51.762;14.320;2023-07-16T15:58:38;28.50;99.90
7167;DHT22;3625;51.762;14.320;2023-07-16T16:01:07;28.50;99.90
7167;DHT22;3625;51.762;14.320;2023-07-16T16:03:36;28.60;99.90
7167;DHT22;3625;51.762;14.320;2023-07-16T16:06:05;28.70;99.90
7167;DHT22;3625;51.762;14.320;2023-07-16T16:08:33;28.80;99.90
7167;DHT22;3625;51.762;14.320;2023-07-16T16:11:03;29.00;99.90
7167;DHT22;3625;51.762;14.320;2023-07-16T16:13:33;29.00;99.90